createdAt,value
2023-04-11T00:00:40.656Z,12.25
2023-04-11T00:03:08.852Z,12.23
2023-04-11T00:05:36.974Z,12.22
2023-04-11T00:08:06.290Z,12.24
2023-04-11T00:10:34.104Z,12.21
2023-04-11T00:13:01.880Z,12.21
2023-04-11T00:15:29.684Z,12.20
2023-04-11T00:17:58.616Z,12.18
2023-04-11T00:20:26.557Z,12.18
2023-04-11T00:22:54.982Z,12.17
2023-04-11T00:25:24.348Z,12.19
2023-04-11T00:27:52.240Z,12.16
2023-04-11T00:30:20.200Z,12.15
2023-04-11T00:32:49.733Z,12.15
2023-04-11T00:35:18.010Z,12.15
2023-04-11T00:37:46.952Z,12.13
2023-04-11T00:40:17.763Z,12.13
2023-04-11T00:42:46.965Z,12.13
2023-04-11T00:45:14.777Z,12.09
2023-04-11T00:47:43.363Z,12.09
2023-04-11T00:50:13.921Z,12.10
2023-04-11T00:52:42.310Z,12.09
2023-04-11T00:55:11.424Z,12.08
2023-04-11T00:57:39.549Z,12.07
2023-04-11T01:00:10.935Z,12.05
2023-04-11T01:02:43.252Z,12.04
2023-04-11T01:05:13.228Z,12.00
2023-04-11T01:07:42.383Z,11.99
2023-04-11T01:10:11.375Z,11.98
2023-04-11T01:12:40.116Z,11.98
2023-04-11T01:15:10.581Z,11.95
2023-04-11T01:17:38.596Z,11.91
2023-04-11T01:20:09.307Z,11.91
2023-04-11T01:22:39.292Z,11.90
2023-04-11T01:25:09.847Z,11.89
2023-04-11T01:27:38.817Z,11.85
2023-04-11T01:30:08.725Z,11.86
2023-04-11T01:32:36.664Z,11.82
2023-04-11T01:35:06.282Z,11.82
2023-04-11T01:37:34.705Z,11.80
2023-04-11T01:40:02.807Z,11.78
2023-04-11T01:42:33.678Z,11.79
2023-04-11T01:45:02.628Z,11.77
2023-04-11T01:47:30.508Z,11.74
2023-04-11T01:49:58.459Z,11.73
2023-04-11T01:52:26.416Z,11.73
2023-04-11T01:54:54.422Z,11.70
2023-04-11T01:57:22.266Z,11.68
2023-04-11T01:59:51.772Z,11.70
2023-04-11T02:02:19.715Z,11.67
2023-04-11T02:04:47.721Z,11.65
2023-04-11T02:07:15.902Z,11.64
2023-04-11T02:09:43.722Z,11.64
2023-04-11T02:12:11.920Z,11.63
2023-04-11T02:14:42.918Z,11.63
2023-04-11T02:17:12.543Z,11.62
2023-04-11T02:19:41.108Z,11.60
2023-04-11T02:22:09.891Z,11.59
2023-04-11T02:24:38.034Z,11.58
2023-04-11T02:27:05.768Z,11.58
2023-04-11T02:29:33.593Z,11.58
2023-04-11T02:32:01.533Z,11.56
2023-04-11T02:34:30.832Z,11.57
2023-04-11T02:36:58.634Z,11.55
2023-04-11T02:39:26.428Z,11.53
2023-04-11T02:41:57.250Z,11.51
2023-04-11T02:44:26.463Z,11.51
2023-04-11T02:46:56.111Z,11.50
2023-04-11T02:49:25.386Z,11.48
2023-04-11T02:51:55.288Z,11.48
2023-04-11T02:54:23.115Z,11.46
2023-04-11T02:56:51.028Z,11.45
2023-04-11T02:59:19.212Z,11.43
2023-04-11T03:01:47.123Z,11.40
2023-04-11T03:04:15.497Z,11.38
2023-04-11T03:07:12.493Z,11.35
2023-04-11T03:09:40.533Z,11.32
2023-04-11T03:12:08.656Z,11.31
2023-04-11T03:14:43.488Z,11.30
2023-04-11T03:17:11.389Z,11.30
2023-04-11T03:19:39.177Z,11.27
2023-04-11T03:22:07.132Z,11.25
2023-04-11T03:24:36.254Z,11.26
2023-04-11T03:27:04.124Z,11.22
2023-04-11T03:29:32.578Z,11.20
2023-04-11T03:32:10.937Z,11.18
2023-04-11T03:34:39.138Z,11.18
2023-04-11T03:37:09.430Z,11.17
2023-04-11T03:39:40.782Z,11.16
2023-04-11T03:42:08.756Z,11.14
2023-04-11T03:44:37.151Z,11.12
2023-04-11T03:47:05.380Z,11.12
2023-04-11T03:49:40.773Z,11.11
2023-04-11T03:52:10.094Z,11.09
2023-04-11T03:54:40.697Z,11.10
2023-04-11T03:57:11.336Z,11.07
2023-04-11T03:59:39.861Z,11.07
2023-04-11T04:02:10.361Z,11.05
2023-04-11T04:04:47.134Z,11.04
2023-04-11T04:07:25.810Z,11.02
2023-04-11T04:10:00.757Z,11.02
2023-04-11T04:12:28.692Z,11.00
2023-04-11T04:15:17.094Z,10.96
2023-04-11T04:17:48.581Z,10.95
2023-04-11T04:20:26.564Z,10.94
2023-04-11T04:23:00.143Z,10.91
2023-04-11T04:25:42.214Z,10.92
2023-04-11T04:28:12.798Z,10.89
2023-04-11T04:30:41.623Z,10.91
2023-04-11T04:33:14.722Z,10.91
2023-04-11T04:35:47.455Z,10.89
2023-04-11T04:38:17.562Z,10.88
2023-04-11T04:40:50.721Z,10.87
2023-04-11T04:43:23.792Z,10.89
2023-04-11T04:46:12.053Z,10.86
2023-04-11T04:48:48.000Z,10.86
2023-04-11T04:51:15.941Z,10.86
2023-04-11T04:53:43.968Z,10.83
2023-04-11T04:56:14.114Z,10.84
2023-04-11T04:58:47.281Z,10.81
2023-04-11T05:01:17.618Z,10.79
2023-04-11T05:03:50.832Z,10.78
2023-04-11T05:06:29.050Z,10.78
2023-04-11T05:08:58.608Z,10.77
2023-04-11T05:11:28.401Z,10.77
2023-04-11T05:13:56.665Z,10.75
2023-04-11T05:16:24.640Z,10.74
2023-04-11T05:18:52.585Z,10.71
2023-04-11T05:21:20.490Z,10.69
2023-04-11T05:23:51.771Z,10.65
2023-04-11T05:26:20.337Z,10.63
2023-04-11T05:28:49.497Z,10.60
2023-04-11T05:31:20.982Z,10.35
2023-04-11T05:33:49.470Z,10.53
2023-04-11T05:36:17.392Z,10.57
2023-04-11T05:38:46.364Z,10.56
2023-04-11T05:41:14.169Z,10.55
2023-04-11T05:43:42.026Z,10.55
2023-04-11T05:46:12.800Z,10.55
2023-04-11T05:48:41.374Z,10.54
2023-04-11T05:51:10.460Z,10.55
2023-04-11T05:53:38.565Z,10.55
2023-04-11T05:56:07.057Z,10.57
2023-04-11T05:58:36.972Z,10.57
2023-04-11T06:01:07.412Z,10.57
2023-04-11T06:03:36.927Z,10.56
2023-04-11T06:06:17.702Z,10.54
2023-04-11T06:08:45.981Z,10.52
2023-04-11T06:11:13.758Z,10.51
2023-04-11T06:13:41.584Z,10.51
2023-04-11T06:16:09.948Z,10.53
2023-04-11T06:18:39.278Z,10.54
2023-04-11T06:21:07.299Z,10.53
2023-04-11T06:23:35.352Z,10.54
2023-04-11T06:26:03.340Z,10.55
2023-04-11T06:28:31.399Z,10.57
2023-04-11T06:30:59.286Z,10.60
2023-04-11T06:33:27.222Z,10.64
2023-04-11T06:35:56.930Z,10.68
2023-04-11T06:38:24.911Z,10.69
2023-04-11T06:40:54.530Z,10.70
2023-04-11T06:43:22.436Z,10.71
2023-04-11T06:45:51.525Z,10.73
2023-04-11T06:48:20.943Z,10.74
2023-04-11T06:50:49.535Z,10.75
2023-04-11T06:53:18.765Z,10.77
2023-04-11T06:55:49.533Z,10.77
2023-04-11T06:58:17.524Z,10.74
2023-04-11T07:00:45.310Z,10.75
2023-04-11T07:03:14.077Z,10.76
2023-04-11T07:05:42.139Z,10.77
2023-04-11T07:08:10.050Z,10.79
2023-04-11T07:10:39.389Z,10.81
2023-04-11T07:13:07.261Z,10.81
2023-04-11T07:15:35.315Z,10.82
2023-04-11T07:18:03.378Z,10.84
2023-04-11T07:20:32.877Z,10.84
2023-04-11T07:23:00.994Z,10.86
2023-04-11T07:25:31.003Z,10.88
2023-04-11T07:28:00.624Z,10.88
2023-04-11T07:30:29.081Z,10.90
2023-04-11T07:32:57.060Z,10.89
2023-04-11T07:35:25.265Z,10.92
2023-04-11T07:37:54.067Z,10.94
2023-04-11T07:40:22.217Z,10.97
2023-04-11T07:42:50.159Z,11.00
2023-04-11T07:45:19.540Z,11.07
2023-04-11T07:47:47.987Z,11.12
2023-04-11T07:50:15.961Z,11.18
2023-04-11T07:52:43.866Z,11.24
2023-04-11T07:55:12.196Z,11.31
2023-04-11T07:57:40.132Z,11.36
2023-04-11T08:00:22.413Z,11.44
2023-04-11T08:02:51.027Z,11.43
2023-04-11T08:05:19.272Z,11.52
2023-04-11T08:07:47.388Z,11.56
2023-04-11T08:10:15.253Z,11.60
2023-04-11T08:12:43.249Z,11.64
2023-04-11T08:15:11.857Z,11.68
2023-04-11T08:17:43.627Z,11.74
2023-04-11T08:20:12.852Z,11.77
2023-04-11T08:22:41.762Z,11.83
2023-04-11T08:25:10.599Z,11.90
2023-04-11T08:27:38.669Z,11.93
2023-04-11T08:30:08.301Z,11.97
2023-04-11T08:32:36.542Z,12.00
2023-04-11T08:35:06.541Z,12.04
2023-04-11T08:37:34.412Z,12.05
2023-04-11T08:40:02.230Z,12.07
2023-04-11T08:42:31.143Z,12.10
2023-04-11T08:45:00.180Z,12.11
2023-04-11T08:47:28.415Z,12.13
2023-04-11T08:49:57.189Z,12.12
2023-04-11T08:52:27.049Z,12.16
2023-04-11T08:54:55.958Z,12.17
2023-04-11T08:57:27.682Z,12.18
2023-04-11T08:59:56.968Z,12.16
2023-04-11T09:02:25.017Z,12.18
2023-04-11T09:04:53.301Z,12.19
2023-04-11T09:07:22.002Z,12.21
2023-04-11T09:09:51.333Z,12.23
2023-04-11T09:12:29.626Z,12.26
2023-04-11T09:14:57.780Z,12.24
2023-04-11T09:17:25.672Z,12.23
2023-04-11T09:19:53.621Z,12.24
2023-04-11T09:22:21.710Z,12.24
2023-04-11T09:25:03.634Z,12.26
2023-04-11T09:27:31.533Z,12.26
2023-04-11T09:29:59.450Z,12.26
2023-04-11T09:32:32.471Z,12.31
2023-04-11T09:35:11.600Z,12.34
2023-04-11T09:37:45.095Z,12.38
2023-04-11T09:40:16.650Z,12.43
2023-04-11T09:42:45.035Z,12.45
2023-04-11T09:45:20.580Z,12.52
2023-04-11T09:47:50.148Z,12.54
2023-04-11T09:50:18.872Z,12.58
2023-04-11T09:52:47.399Z,12.59
2023-04-11T09:55:20.550Z,12.62
2023-04-11T09:57:49.661Z,12.63
2023-04-11T10:00:21.805Z,12.65
2023-04-11T10:02:52.931Z,12.64
2023-04-11T10:05:26.164Z,12.66
2023-04-11T10:08:14.123Z,12.68
2023-04-11T10:10:44.637Z,12.69
2023-04-11T10:13:42.704Z,12.72
2023-04-11T10:16:13.608Z,12.75
2023-04-11T10:19:24.037Z,12.79
2023-04-11T10:21:52.522Z,12.84
2023-04-11T10:24:21.774Z,12.92
2023-04-11T10:26:53.236Z,13.00
2023-04-11T10:29:51.774Z,13.03
2023-04-11T10:32:29.276Z,13.08
2023-04-11T10:35:25.287Z,13.08
2023-04-11T10:37:53.375Z,13.11
2023-04-11T10:40:21.570Z,13.17
2023-04-11T10:42:51.484Z,13.25
2023-04-11T10:45:25.110Z,13.33
2023-04-11T10:48:10.342Z,13.36
2023-04-11T10:50:42.133Z,13.38
2023-04-11T10:53:14.316Z,13.40
2023-04-11T10:55:49.877Z,13.42
2023-04-11T10:58:22.262Z,13.42
2023-04-11T11:01:32.385Z,13.40
2023-04-11T11:04:10.989Z,13.40
2023-04-11T11:06:47.482Z,13.44
2023-04-11T11:09:24.040Z,13.44
2023-04-11T11:12:07.601Z,13.45
2023-04-11T11:14:37.017Z,13.47
2023-04-11T11:17:05.329Z,13.51
2023-04-11T11:19:33.710Z,13.54
2023-04-11T11:22:04.005Z,13.58
2023-04-11T11:24:32.280Z,13.62
2023-04-11T11:27:00.542Z,13.68
2023-04-11T11:29:32.592Z,13.72
2023-04-11T11:32:03.890Z,13.73
2023-04-11T11:34:33.094Z,13.77
2023-04-11T11:37:04.835Z,13.79
2023-04-11T11:39:34.168Z,13.53
2023-04-11T11:42:03.365Z,13.76
2023-04-11T11:44:32.235Z,13.80
2023-04-11T11:47:05.426Z,13.82
2023-04-11T11:49:46.980Z,13.80
2023-04-11T11:52:32.847Z,13.77
2023-04-11T11:55:01.376Z,13.76
2023-04-11T11:57:29.245Z,13.76
2023-04-11T11:59:58.645Z,13.78
2023-04-11T12:02:28.738Z,13.79
2023-04-11T12:05:00.099Z,13.80
2023-04-11T12:07:32.691Z,13.80
2023-04-11T12:10:01.599Z,13.80
2023-04-11T12:12:37.375Z,13.84
2023-04-11T12:15:11.690Z,13.84
2023-04-11T12:17:41.442Z,13.83
2023-04-11T12:20:11.160Z,13.80
2023-04-11T12:22:39.748Z,13.82
2023-04-11T12:25:09.182Z,13.85
2023-04-11T12:27:37.973Z,13.85
2023-04-11T12:30:07.395Z,13.86
2023-04-11T12:32:35.536Z,13.87
2023-04-11T12:35:06.575Z,13.91
2023-04-11T12:37:35.872Z,13.91
2023-04-11T12:40:09.209Z,13.92
2023-04-11T12:42:45.298Z,13.90
2023-04-11T12:45:21.267Z,13.88
2023-04-11T12:47:49.156Z,13.88
2023-04-11T12:50:18.996Z,13.89
2023-04-11T12:52:48.659Z,13.86
2023-04-11T12:55:16.660Z,13.88
2023-04-11T12:57:44.597Z,13.86
2023-04-11T13:00:13.863Z,13.89
2023-04-11T13:02:44.467Z,13.89
2023-04-11T13:05:14.438Z,13.93
2023-04-11T13:07:46.276Z,13.98
2023-04-11T13:10:15.921Z,14.01
2023-04-11T13:12:45.378Z,14.07
2023-04-11T13:15:14.951Z,14.12
2023-04-11T13:17:43.294Z,14.17
2023-04-11T13:20:12.524Z,14.23
2023-04-11T13:22:41.634Z,14.28
2023-04-11T13:25:12.029Z,14.33
2023-04-11T13:27:40.213Z,14.36
2023-04-11T13:30:09.914Z,14.41
2023-04-11T13:32:38.033Z,14.43
2023-04-11T13:35:06.498Z,14.47
2023-04-11T13:37:34.346Z,14.50
2023-04-11T13:40:02.142Z,14.52
2023-04-11T13:42:31.436Z,14.55
2023-04-11T13:44:59.315Z,14.56
2023-04-11T13:47:27.229Z,14.58
2023-04-11T13:49:55.064Z,14.59
2023-04-11T13:52:23.783Z,14.60
2023-04-11T13:54:51.669Z,14.60
2023-04-11T13:57:19.505Z,14.61
2023-04-11T13:59:48.676Z,14.60
2023-04-11T14:02:16.633Z,14.61
2023-04-11T14:04:44.460Z,14.62
2023-04-11T14:07:12.539Z,14.62
2023-04-11T14:09:40.668Z,14.65
2023-04-11T14:12:08.543Z,14.64
2023-04-11T14:14:36.389Z,14.65
2023-04-11T14:17:05.937Z,14.65
2023-04-11T14:19:33.937Z,14.60
2023-04-11T14:22:01.943Z,14.57
2023-04-11T14:24:29.969Z,14.54
2023-04-11T14:26:58.034Z,14.50
2023-04-11T14:29:26.407Z,14.45
2023-04-11T14:31:54.546Z,14.41
2023-04-11T14:34:23.796Z,14.37
2023-04-11T14:36:51.835Z,14.32
2023-04-11T14:39:19.678Z,14.30
2023-04-11T14:41:48.448Z,14.30
2023-04-11T14:44:16.923Z,14.27
2023-04-11T14:46:44.728Z,14.27
2023-04-11T14:49:12.616Z,14.25
2023-04-11T14:51:43.289Z,14.25
2023-04-11T14:54:11.251Z,14.20
2023-04-11T14:56:39.102Z,14.18
2023-04-11T14:59:07.421Z,14.16
2023-04-11T15:01:35.423Z,14.13
2023-04-11T15:04:03.450Z,14.11
2023-04-11T15:06:31.681Z,14.08
2023-04-11T15:09:01.571Z,14.06
2023-04-11T15:11:29.711Z,14.02
2023-04-11T15:13:57.861Z,14.00
2023-04-11T15:16:26.231Z,13.98
2023-04-11T15:18:54.089Z,13.97
2023-04-11T15:21:21.948Z,13.96
2023-04-11T15:23:49.872Z,13.95
2023-04-11T15:26:19.016Z,13.96
2023-04-11T15:28:47.926Z,13.93
2023-04-11T15:31:26.590Z,13.95
2023-04-11T15:33:56.598Z,13.93
2023-04-11T15:36:24.762Z,13.91
2023-04-11T15:38:52.580Z,13.91
2023-04-11T15:41:21.725Z,13.92
2023-04-11T15:43:49.585Z,13.89
2023-04-11T15:46:17.451Z,13.89
2023-04-11T15:48:45.660Z,13.89
2023-04-11T15:51:14.227Z,13.88
2023-04-11T15:53:42.078Z,13.88
2023-04-11T15:56:10.378Z,13.89
2023-04-11T15:58:39.544Z,13.90
2023-04-11T16:01:08.102Z,13.89
2023-04-11T16:03:36.632Z,13.88
2023-04-11T16:06:05.830Z,13.88
2023-04-11T16:08:33.688Z,13.89
2023-04-11T16:11:01.507Z,13.90
2023-04-11T16:13:29.312Z,13.90
2023-04-11T16:15:59.206Z,13.90
2023-04-11T16:18:27.048Z,13.89
2023-04-11T16:20:54.896Z,13.90
2023-04-11T16:23:22.734Z,13.88
2023-04-11T16:25:50.576Z,13.89
2023-04-11T16:28:18.384Z,13.89
2023-04-11T16:30:46.373Z,13.89
2023-04-11T16:33:15.583Z,13.91
2023-04-11T16:35:43.876Z,13.88
2023-04-11T16:38:11.728Z,13.88
2023-04-11T16:40:39.586Z,13.86
2023-04-11T16:43:07.402Z,13.85
2023-04-11T16:45:35.482Z,13.85
2023-04-11T16:48:03.375Z,13.85
2023-04-11T16:50:32.545Z,13.85
2023-04-11T16:53:00.339Z,13.82
2023-04-11T16:55:28.111Z,13.80
2023-04-11T16:57:55.939Z,13.79
2023-04-11T17:00:24.183Z,13.79
2023-04-11T17:02:52.117Z,13.77
2023-04-11T17:05:19.981Z,13.75
2023-04-11T17:07:49.256Z,13.75
2023-04-11T17:10:17.248Z,13.72
2023-04-11T17:12:45.058Z,13.70
2023-04-11T17:15:13.359Z,13.68
2023-04-11T17:17:41.187Z,13.65
2023-04-11T17:20:11.879Z,13.65
2023-04-11T17:22:43.073Z,13.61
2023-04-11T17:25:12.466Z,13.62
2023-04-11T17:27:41.161Z,13.60
2023-04-11T17:30:10.225Z,13.58
2023-04-11T17:32:38.302Z,13.56
2023-04-11T17:35:07.242Z,13.55
2023-04-11T17:37:36.094Z,13.54
2023-04-11T17:40:12.966Z,13.53
2023-04-11T17:42:42.573Z,13.52
2023-04-11T17:45:17.709Z,13.51
2023-04-11T17:47:46.629Z,13.48
2023-04-11T17:50:14.890Z,13.47
2023-04-11T17:52:44.398Z,13.47
2023-04-11T17:55:14.004Z,13.46
2023-04-11T17:57:44.203Z,13.45
2023-04-11T18:00:19.736Z,13.43
2023-04-11T18:02:49.426Z,13.43
2023-04-11T18:05:23.597Z,13.42
2023-04-11T18:07:54.165Z,13.40
2023-04-11T18:10:23.077Z,13.39
2023-04-11T18:12:53.589Z,13.40
2023-04-11T18:15:23.792Z,13.38
2023-04-11T18:17:52.454Z,13.36
2023-04-11T18:20:20.557Z,13.34
2023-04-11T18:22:50.160Z,13.34
2023-04-11T18:25:18.759Z,13.32
2023-04-11T18:27:47.082Z,13.30
2023-04-11T18:30:17.690Z,13.30
2023-04-11T18:32:49.615Z,13.27
2023-04-11T18:35:18.099Z,12.98
2023-04-11T18:37:46.025Z,13.18
2023-04-11T18:40:15.673Z,13.21
2023-04-11T18:42:46.138Z,13.20
2023-04-11T18:45:17.926Z,13.16
2023-04-11T18:47:46.444Z,13.15
2023-04-11T18:50:14.864Z,13.12
2023-04-11T18:52:44.851Z,13.10
2023-04-11T18:55:12.930Z,13.09
2023-04-11T18:57:41.906Z,13.07
2023-04-11T19:00:18.139Z,13.06
2023-04-11T19:02:50.666Z,13.04
2023-04-11T19:05:19.252Z,12.99
2023-04-11T19:07:47.423Z,12.99
2023-04-11T19:10:15.392Z,12.98
2023-04-11T19:12:43.271Z,12.97
2023-04-11T19:15:12.304Z,12.95
2023-04-11T19:17:40.544Z,12.94
2023-04-11T19:20:13.543Z,12.95
2023-04-11T19:22:41.978Z,12.91
2023-04-11T19:25:11.571Z,12.91
2023-04-11T19:27:41.463Z,12.89
2023-04-11T19:30:10.989Z,12.87
2023-04-11T19:32:42.878Z,12.86
2023-04-11T19:35:12.964Z,12.85
2023-04-11T19:37:41.782Z,12.83
2023-04-11T19:40:12.359Z,12.82
2023-04-11T19:42:40.580Z,12.80
2023-04-11T19:45:11.612Z,12.80
2023-04-11T19:47:40.904Z,12.78
2023-04-11T19:50:13.805Z,12.78
2023-04-11T19:52:42.631Z,12.76
2023-04-11T19:55:11.604Z,12.75
2023-04-11T19:57:40.261Z,12.74
2023-04-11T20:00:14.128Z,12.73
2023-04-11T20:02:45.752Z,12.71
2023-04-11T20:05:17.895Z,12.71
2023-04-11T20:07:46.263Z,12.67
2023-04-11T20:10:15.167Z,12.68
2023-04-11T20:12:43.219Z,12.66
2023-04-11T20:15:11.841Z,12.67
2023-04-11T20:17:39.838Z,12.65
2023-04-11T20:20:11.216Z,12.65
2023-04-11T20:22:41.244Z,12.63
2023-04-11T20:25:11.551Z,12.61
2023-04-11T20:27:39.877Z,12.58
2023-04-11T20:30:10.197Z,12.59
2023-04-11T20:32:38.395Z,12.56
2023-04-11T20:35:08.563Z,12.54
2023-04-11T20:37:36.631Z,12.54
2023-04-11T20:40:08.099Z,12.55
2023-04-11T20:42:40.055Z,12.53
2023-04-11T20:45:10.385Z,12.48
2023-04-11T20:47:38.890Z,12.49
2023-04-11T20:50:10.274Z,12.49
2023-04-11T20:52:41.081Z,12.47
2023-04-11T20:55:11.814Z,12.46
2023-04-11T20:57:39.702Z,12.44
2023-04-11T21:00:12.726Z,12.45
2023-04-11T21:02:42.670Z,12.42
2023-04-11T21:05:11.872Z,12.42
2023-04-11T21:07:39.865Z,12.41
2023-04-11T21:10:10.779Z,12.42
2023-04-11T21:12:39.182Z,12.39
2023-04-11T21:15:08.543Z,12.38
2023-04-11T21:17:39.392Z,12.37
2023-04-11T21:20:11.041Z,12.36
2023-04-11T21:22:40.212Z,12.35
2023-04-11T21:25:10.615Z,12.35
2023-04-11T21:27:38.481Z,12.33
2023-04-11T21:30:07.363Z,12.33
2023-04-11T21:32:35.395Z,12.32
2023-04-11T21:35:03.651Z,12.32
2023-04-11T21:37:31.679Z,12.31
2023-04-11T21:39:59.542Z,12.30
2023-04-11T21:42:28.874Z,12.31
2023-04-11T21:44:56.750Z,12.29
2023-04-11T21:47:24.588Z,12.29
2023-04-11T21:49:52.498Z,12.29
2023-04-11T21:52:20.565Z,12.29
2023-04-11T21:54:48.379Z,12.28
2023-04-11T21:57:16.209Z,12.28
2023-04-11T21:59:46.802Z,12.30
2023-04-11T22:02:14.725Z,12.29
2023-04-11T22:05:01.165Z,12.28
2023-04-11T22:07:38.171Z,12.28
2023-04-11T22:10:09.635Z,12.28
2023-04-11T22:12:37.768Z,12.28
2023-04-11T22:15:08.309Z,12.28
2023-04-11T22:17:37.210Z,12.26
2023-04-11T22:20:09.121Z,12.26
2023-04-11T22:22:38.618Z,12.22
2023-04-11T22:25:08.321Z,12.23
2023-04-11T22:27:36.244Z,12.23
2023-04-11T22:30:05.424Z,12.22
2023-04-11T22:32:36.991Z,12.22
2023-04-11T22:35:05.612Z,12.19
2023-04-11T22:37:33.477Z,12.18
2023-04-11T22:40:01.747Z,12.19
2023-04-11T22:42:30.071Z,12.16
2023-04-11T22:44:57.969Z,12.17
2023-04-11T22:47:28.874Z,12.17
2023-04-11T22:49:58.235Z,12.17
2023-04-11T22:52:26.037Z,12.15
2023-04-11T22:54:54.000Z,12.15
2023-04-11T22:57:21.793Z,12.15
2023-04-11T22:59:49.657Z,12.11
2023-04-11T23:02:17.601Z,12.13
2023-04-11T23:04:45.648Z,12.10
2023-04-11T23:07:16.965Z,12.12
2023-04-11T23:09:44.947Z,12.09
2023-04-11T23:12:12.872Z,12.07
2023-04-11T23:14:40.667Z,12.07
2023-04-11T23:17:08.702Z,12.05
2023-04-11T23:19:36.938Z,12.06
2023-04-11T23:22:04.926Z,12.04
2023-04-11T23:24:34.404Z,12.05
2023-04-11T23:27:02.513Z,12.04
2023-04-11T23:29:30.711Z,12.03
2023-04-11T23:31:58.568Z,12.03
2023-04-11T23:34:26.457Z,12.03
2023-04-11T23:36:54.386Z,12.03
2023-04-11T23:39:22.794Z,12.02
2023-04-11T23:41:52.537Z,12.03
2023-04-11T23:44:20.572Z,12.01
2023-04-11T23:46:48.363Z,12.01
2023-04-11T23:49:16.303Z,12.01
2023-04-11T23:51:44.052Z,11.99
2023-04-11T23:54:11.938Z,11.99
2023-04-11T23:56:39.733Z,11.98
2023-04-11T23:59:08.931Z,11.98
